EPKT/KTW METAR and TAF weather

Enter ICAO airport designator
Station Type Date Time Source
EPKT METAR 2018/07/21 13:30 UTC NOAA

EPKT 211330Z 25006KT 200V010 CAVOK 27/09 Q1012


Station Type Date Time Source
EPKT Decoded METAR 2018/07/21 13:30 UTC NOAA

Katowice, Poland (EPKT) 50-14N 019-02E 284M
Jul 21, 2018 - 09:30 AM EDT / 2018.07.21 1330 UTC
Wind: from the WSW (250 degrees) at 7 MPH (6 KT) (direction variable):0
Visibility: greater than 7 mile(s):0
Temperature: 80 F (27 C)
Dew Point: 48 F (9 C)
Relative Humidity: 32%
Pressure (altimeter): 29.88 in. Hg (1012 hPa)
ob: EPKT 211330Z 25006KT 200V010 CAVOK 27/09 Q1012
cycle: 13

Station Type Date Time Source
EPKT TAF 2018/07/21 12:33 UTC NOAA

TAF EPKT 211130Z 2112/2212 29008KT CAVOK


Example: see airport list